Station: Snowtown  

  Atmospheric Gas Attenuation - ITU Rec 676-11   ----------------- dB/100km -----------------
Date Time Temp RH % AH g/m3 Dew Point Wind Direction Speed kph Gust kph Barometer mB Rainfall Since 9am 24GHz 47GHz 76GHz 122GHz 134GHz 241GHz
05/09 20:20 8.4 94 7.98 7.5 0 0 1013.1 2 18.5 26.5 40.0 104.8 96.8 332.2
05/09 20:10 8.3 94 7.93 7.4 0 0 1013.1 2 18.4 26.4 39.8 104.4 96.3 330.2
05/09 20:00 8.3 93 7.84 7.2 6 7 1021 2 18.2 26.6 39.8 104.2 95.6 328.0
05/09 19:50 8.7 90 7.79 7.2 6 9 1013.1 2 18.1 26.0 39.0 102.3 93.8 321.8
05/09 19:40 8.9 88 7.71 7 11 13 1013.1 2 17.9 25.9 38.6 101.2 92.5 317.1
05/09 19:30 8.9 88 7.71 7 11 13 1020.4 2 17.9 26.1 38.9 101.9 93.1 319.0
05/09 19:20 8.9 87 7.62 6.9 7 13 1013.1 2 17.7 25.7 38.2 100.2 91.3 312.8
05/09 19:10 9.3 84 7.55 6.7 9 15 1013.1 2 17.5 25.5 37.7 98.9 89.8 307.9
05/09 19:00 9.2 82 7.32 6.3 9 13 1019.9 2 17.1 25.4 37.1 97.2 87.4 299.1
05/09 18:50 9.3 81 7.28 6.2 2 7 1013.1 2 17.0 25.0 36.6 95.9 86.2 295.2
05/09 18:40 9.6 82 7.51 6.7 6 9 1013.1 2 17.4 25.3 37.4 98.1 88.9 304.8
05/09 18:30 9.5 83 7.56 6.8 7 9 1019.3 2 17.6 25.7 38.0 99.4 90.2 309.2
05/09 18:20 9.7 82 7.56 6.8 7 11 1013.1 2 17.6 25.4 37.6 98.5 89.5 306.8
05/09 18:10 9.6 83 7.61 6.9 7 11 1013.1 2 17.7 25.5 37.8 99.2 90.3 309.6
05/09 18:00 10 81 7.61 6.9 9 13 1018.9 2 17.6 25.6 37.9 99.3 90.3 309.5
05/09 17:50 10.7 78 7.66 7 11 15 1013.1 2 17.7 25.3 37.5 98.3 89.7 307.6
05/09 17:40 11.2 77 7.81 7.3 15 24 1013.1 2 18.0 25.4 37.9 99.3 91.1 312.6
05/09 17:30 11.7 74 7.74 7.2 20 30 1018.3 2 17.8 25.3 37.6 98.5 90.0 308.7
05/09 17:20 12.2 70 7.55 6.9 26 33 1013.1 2 17.4 24.7 36.4 95.3 86.5 296.8
05/09 17:10 13 66 7.49 6.8 26 37 1013.1 2 17.3 24.3 35.8 93.7 84.9 291.1
05/09 17:00 13 68 7.71 7.2 26 37 1017.6 2 17.7 24.9 36.8 96.5 88.1 302.1
05/09 16:50 13.7 65 7.7 7.2 28 41 1013.1 2 17.7 24.5 36.3 95.1 86.8 297.9
05/09 16:40 14 63 7.6 7.1 32 41 1013.1 2 17.4 24.2 35.8 93.7 85.2 292.3
05/09 16:30 14.1 62 7.52 6.9 32 46 1017.2 2 17.3 24.2 35.6 93.1 84.4 289.4
05/09 16:20 14.2 62 7.57 7 32 46 1013.1 2 17.4 24.1 35.6 93.1 84.6 290.2
05/09 16:10 14.3 61 7.49 6.9 33 46 1013.1 2 17.2 24.0 35.2 92.2 83.5 286.3
05/09 16:00 14.5 63 7.84 7.5 33 46 1017.3 2 17.9 24.6 36.6 96.0 88.0 302.2
05/09 15:50 14.8 67 8.49 8.7 30 41 1013.1 2 19.3 25.4 38.9 102.0 95.7 329.2
05/09 15:40 14.8 66 8.36 8.5 33 46 1013.1 2 19.0 25.2 38.3 100.6 94.0 323.3
05/09 15:30 14.2 68 8.3 8.4 35 48 1016.9 2 18.9 25.4 38.6 101.1 94.3 324.0
05/09 15:20 15.3 62 8.1 8.1 33 48 1013.1 2 18.5 24.7 37.1 97.3 90.1 309.6
05/09 15:10 15 64 8.21 8.3 33 50 1013.1 2 18.7 24.9 37.7 98.8 91.9 315.7
05/09 15:00 15.3 67 8.75 9.2 28 37 1017 2 19.8 25.8 39.8 104.5 98.8 340.0
05/09 14:50 14.9 64 8.16 8.2 32 43 1013.1 2 18.6 24.9 37.5 98.4 91.3 313.9
05/09 14:40 15.6 66 8.78 9.3 30 44 1013.1 2 19.9 25.7 39.6 104.0 98.5 339.0
05/09 14:30 13.3 74 8.55 8.8 39 61 1017 2 19.5 26.1 40.0 105.0 98.7 339.4
05/09 14:20 15.2 65 8.44 8.7 39 52 1013.1 2 19.2 25.2 38.5 100.9 94.6 325.3
05/09 14:10 16 67 9.13 9.9 30 43 1013.1 2 20.6 26.1 40.8 107.1 102.5 353.1
05/09 14:00 15.1 71 9.16 9.9 26 35 1016.7 2 20.7 26.5 41.5 109.1 104.4 359.6
05/09 13:50 14.8 70 8.87 9.4 28 43 1013.1 2 20.1 26.0 40.4 106.0 100.7 346.6
05/09 13:40 14.1 72 8.74 9.1 30 44 1013.1 2 19.9 26.0 40.2 105.5 99.9 343.6
05/09 13:30 15 69 8.85 9.4 28 37 1016.6 2 20.1 26.1 40.3 105.9 100.4 345.7
05/09 13:20 15.9 69 9.34 10.2 22 33 1013.1 2 21.1 26.5 41.7 109.5 105.4 363.2
05/09 13:10 14.8 67 8.49 8.7 26 41 1013.1 2 19.3 25.4 38.9 102.0 95.7 329.2
05/09 13:00 14.6 68 8.51 8.8 28 37 1016.9 2 19.4 25.7 39.2 102.8 96.5 331.9
05/09 12:50 14.4 65 8.04 7.9 32 46 1013.1 2 18.4 24.8 37.3 97.8 90.4 310.5
05/09 12:40 14.5 67 8.33 8.5 28 39 1013.1 2 19.0 25.3 38.4 100.7 94.0 323.2
05/09 12:30 14.8 68 8.61 9 32 43 1016.8 2 19.6 25.8 39.5 103.6 97.6 335.6
05/09 12:20 14.9 64 8.16 8.2 30 41 1013.1 2 18.6 24.9 37.5 98.4 91.3 313.9
05/09 12:10 13.7 80 9.47 10.3 28 35 1013.1 2 21.5 27.3 43.4 114.1 110.2 379.8
05/09 12:00 13 83 9.41 10.2 32 48 1016.8 2 21.4 27.6 43.7 114.8 110.7 381.5
05/09 11:50 15.1 67 8.64 9 37 56 1013.1 2 19.6 25.6 39.3 103.1 97.3 334.7
05/09 11:40 15.6 66 8.78 9.3 39 57 1013.1 2 19.9 25.7 39.6 104.0 98.5 339.0
05/09 11:30 15.6 68 9.04 9.7 39 52 1016.3 2 20.4 26.2 40.8 107.1 102.1 351.7
05/09 11:20 15 72 9.23 10 43 61 1013.1 2 20.9 26.6 41.7 109.6 105.2 362.3
05/09 11:10 15 75 9.62 10.6 35 54 1013.1 2 21.7 27.2 43.3 113.8 110.4 380.6
05/09 11:00 14.6 74 9.26 10 37 50 1015.9 2 21.0 26.8 42.2 110.8 106.3 366.4
05/09 10:50 14.4 74 9.15 9.8 39 56 1013.1 2 20.7 26.6 41.7 109.5 104.9 361.3
05/09 10:40 14 77 9.29 10 46 65 1013.1 2 21.1 27.0 42.5 111.6 107.3 369.8
05/09 10:30 13.8 86 10.25 11.5 37 48 1015.6 2 23.1 28.7 46.7 123.0 121.1 417.8
05/09 10:20 12.1 88 9.44 10.2 43 65 1013.1 2 21.5 27.8 44.2 116.1 112.1 386.2
05/09 10:10 13.4 85 9.88 10.9 39 56 1013.1 1.4 22.4 28.1 45.3 119.1 116.3 401.0
05/09 10:00 13.4 89 10.35 11.6 35 50 1015.3 1.4 23.4 29.0 47.4 124.7 123.1 424.8
05/09 09:50 12.9 89 10.03 11.1 30 43 1013.1 1.4 22.7 28.6 46.2 121.6 119.2 411.0
05/09 09:40 14.6 83 10.39 11.7 30 41 1013.1 0.6 23.4 28.6 46.7 123.0 121.5 419.5
05/09 09:30 15.1 82 10.58 12.1 35 48 1014.9 0 23.8 28.8 47.3 124.5 123.5 426.6
05/09 09:20 13.9 83 9.95 11.1 32 43 1013.1 0 22.5 28.1 45.3 119.1 116.5 401.9
05/09 09:10 13.5 84 9.83 10.9 33 48 1013.1 0 22.2 28.0 45.0 118.4 115.5 398.1
05/09 09:00 13.6 85 10 11.1 30 43 1014.8 0 22.6 28.3 45.8 120.3 117.8 406.4
05/09 08:50 13 87 9.87 10.9 32 44 1013.1 2.6 22.4 28.2 45.5 119.6 116.8 402.6
05/09 08:40 14.1 79 9.59 10.5 32 46 1013.1 2.6 21.7 27.4 43.7 114.8 111.3 383.6
05/09 08:30 14.5 75 9.33 10.1 30 43 1014.4 2.6 21.1 26.9 42.4 111.5 107.3 369.7
05/09 08:20 14.5 78 9.7 10.7 28 37 1013.1 2.6 21.9 27.5 43.9 115.4 112.2 386.8
05/09 08:10 14.2 76 9.28 10 30 41 1013.1 2.6 21.0 26.9 42.3 111.2 106.9 368.4
05/09 08:00 13.8 79 9.41 10.2 28 44 1014.1 2.6 21.3 27.3 43.1 113.4 109.3 376.7
05/09 07:50 13.6 77 9.06 9.6 26 37 1013.1 2.6 20.6 26.7 41.8 109.7 104.8 360.8
05/09 07:40 13.4 78 9.07 9.6 26 35 1013.1 2.6 20.6 26.8 41.9 110.1 105.2 362.2
05/09 07:30 13.1 80 9.13 9.7 26 41 1013.7 2.6 20.8 27.0 42.3 111.2 106.5 366.6
05/09 07:20 13 79 8.96 9.4 30 43 1013.1 2.6 20.4 26.7 41.7 109.4 104.2 358.9
05/09 07:10 12.7 80 8.91 9.3 28 44 1013.1 2.6 20.3 26.7 41.6 109.3 104.0 357.9
05/09 07:00 12.6 81 8.96 9.4 26 35 1013.5 2.6 20.4 26.9 41.9 110.0 104.8 360.8
05/09 06:50 12.6 80 8.85 9.2 28 37 1013.1 2.6 20.2 26.7 41.4 108.8 103.3 355.5
05/09 06:40 12.7 81 9.02 9.5 28 37 1013.1 2.6 20.5 26.9 42.1 110.5 105.5 363.1
05/09 06:30 12.6 82 9.07 9.6 30 41 1013.1 2.6 20.7 27.0 42.3 111.2 106.3 365.9
05/09 06:20 12.6 84 9.29 10 26 35 1013.1 2.6 21.1 27.4 43.3 113.7 109.3 376.5
05/09 06:10 12.6 82 9.07 9.6 26 39 1013.1 2.6 20.7 27.0 42.3 111.2 106.3 365.9
05/09 06:00 13 81 9.19 9.8 22 37 1012.8 2.6 20.9 27.1 42.6 111.9 107.3 369.7
05/09 05:50 12.9 81 9.13 9.7 20 26 1013.1 2.6 20.8 27.0 42.4 111.4 106.7 367.4
05/09 05:40 13.4 79 9.18 9.8 22 33 1013.1 2.6 20.9 27.0 42.4 111.3 106.7 367.4
05/09 05:30 13.8 76 9.06 9.6 24 32 1012.4 2.6 20.6 26.6 41.6 109.3 104.5 359.7
05/09 05:20 13.6 76 8.94 9.5 24 33 1013.1 2.6 20.3 26.5 41.3 108.4 103.2 355.2
05/09 05:10 13.9 74 8.87 9.3 22 32 1013.1 2.6 20.2 26.3 40.8 107.2 101.8 350.5
05/09 05:00 14.2 71 8.67 9 24 33 1011.9 2.6 19.7 25.8 39.8 104.5 98.7 339.6
05/09 04:50 13.8 77 9.17 9.8 20 28 1013.1 2.6 20.8 26.8 42.1 110.6 106.0 365.1
05/09 04:40 14.1 78 9.47 10.3 22 30 1013.1 2.6 21.4 27.2 43.2 113.5 109.6 377.8
05/09 04:30 13.8 79 9.41 10.2 20 28 1011.5 2.6 21.3 27.2 43.0 113.1 109.1 376.0
05/09 04:20 13.1 82 9.36 10.1 17 20 1013.1 2.6 21.3 27.4 43.3 113.7 109.6 377.4
05/09 04:10 13.5 79 9.24 9.9 15 19 1013.1 2.6 21.0 27.0 42.6 111.8 107.4 369.8
05/09 04:00 14.1 75 9.1 9.7 17 24 1011.2 2.6 20.6 26.5 41.6 109.2 104.5 359.8
05/09 03:50 15 68 8.72 9.1 19 28 1013.1 2.6 19.8 25.7 39.7 104.1 98.4 338.8

Last Refresh: 05-Sep-2026 20:31:24

Bureau of Meteorology